createdAt,value
2022-10-22T00:02:20.650Z,96.37
2022-10-22T00:04:50.675Z,95.93
2022-10-22T00:07:18.389Z,96.22
2022-10-22T00:09:45.610Z,96.43
2022-10-22T00:12:13.611Z,96.81
2022-10-22T00:14:40.104Z,96.58
2022-10-22T00:17:10.539Z,96.79
2022-10-22T00:19:38.510Z,96.83
2022-10-22T00:22:05.873Z,96.72
2022-10-22T00:24:34.097Z,96.82
2022-10-22T00:27:01.189Z,96.45
2022-10-22T00:29:28.145Z,96.52
2022-10-22T00:34:26.295Z,96.80
2022-10-22T00:36:53.485Z,96.38
2022-10-22T00:39:22.079Z,96.35
2022-10-22T00:41:51.053Z,96.59
2022-10-22T00:44:55.081Z,96.07
2022-10-22T00:47:23.954Z,96.18
2022-10-22T00:49:53.020Z,96.56
2022-10-22T00:52:20.036Z,96.37
2022-10-22T00:54:46.731Z,96.54
2022-10-22T00:57:13.270Z,96.54
2022-10-22T00:59:39.980Z,96.39
2022-10-22T01:02:06.430Z,96.41
2022-10-22T01:04:33.101Z,96.43
2022-10-22T01:06:59.760Z,96.46
2022-10-22T01:09:28.953Z,96.31
2022-10-22T01:12:12.059Z,96.54
2022-10-22T01:14:41.349Z,96.80
2022-10-22T01:17:17.908Z,96.49
2022-10-22T01:19:54.759Z,96.44
2022-10-22T01:22:27.498Z,96.37
2022-10-22T01:25:13.457Z,96.36
2022-10-22T01:27:46.264Z,96.40
2022-10-22T01:30:14.931Z,96.37
2022-10-22T01:32:50.262Z,96.50
2022-10-22T01:35:23.085Z,96.39
2022-10-22T01:37:55.870Z,96.57
2022-10-22T01:40:23.802Z,96.39
2022-10-22T01:42:58.496Z,96.43
2022-10-22T01:45:25.653Z,96.50
2022-10-22T01:47:58.057Z,96.72
2022-10-22T01:50:56.714Z,96.08
2022-10-22T01:53:35.299Z,96.32
2022-10-22T01:56:12.671Z,96.19
2022-10-22T01:58:54.412Z,96.47
2022-10-22T02:01:33.958Z,96.49
2022-10-22T02:04:03.188Z,96.58
2022-10-22T02:06:32.148Z,96.59
2022-10-22T02:09:02.534Z,96.62
2022-10-22T02:11:29.657Z,96.42
2022-10-22T02:14:01.204Z,96.58
2022-10-22T02:16:36.437Z,96.90
2022-10-22T02:19:12.689Z,96.38
2022-10-22T02:21:39.738Z,96.84
2022-10-22T02:24:07.182Z,96.86
2022-10-22T02:26:46.312Z,96.56
2022-10-22T02:29:20.505Z,96.92
2022-10-22T02:31:49.759Z,96.70
2022-10-22T02:34:21.980Z,96.97
2022-10-22T02:36:50.488Z,97.04
2022-10-22T02:39:19.248Z,96.54
2022-10-22T02:41:45.833Z,96.33
2022-10-22T02:44:12.448Z,96.67
2022-10-22T02:46:40.534Z,96.78
2022-10-22T02:49:06.990Z,96.73
2022-10-22T02:51:33.917Z,96.88
2022-10-22T02:54:00.414Z,96.55
2022-10-22T02:56:27.270Z,96.46
2022-10-22T02:58:53.735Z,96.43
2022-10-22T03:01:20.458Z,96.56
2022-10-22T03:03:46.967Z,96.43
2022-10-22T03:06:13.556Z,96.82
2022-10-22T03:08:40.486Z,97.14
2022-10-22T03:11:06.983Z,97.11
2022-10-22T03:13:33.523Z,96.90
2022-10-22T03:16:00.113Z,96.46
2022-10-22T03:18:26.578Z,96.41
2022-10-22T03:21:13.886Z,96.36
2022-10-22T03:23:42.896Z,96.70
2022-10-22T03:26:12.487Z,96.53
2022-10-22T03:28:41.056Z,96.52
2022-10-22T03:31:07.765Z,96.18
2022-10-22T03:33:34.394Z,96.35
2022-10-22T03:36:01.301Z,96.17
2022-10-22T03:38:28.852Z,96.05
2022-10-22T03:40:55.432Z,96.20
2022-10-22T03:43:21.954Z,96.19
2022-10-22T03:45:48.424Z,96.36
2022-10-22T03:48:15.131Z,96.00
2022-10-22T03:50:41.687Z,96.40
2022-10-22T03:53:10.561Z,96.79
2022-10-22T03:55:38.317Z,96.28
2022-10-22T03:58:05.555Z,96.43
2022-10-22T04:00:32.735Z,96.48
2022-10-22T04:02:59.232Z,96.62
2022-10-22T04:05:25.870Z,96.56
2022-10-22T04:07:52.405Z,96.49
2022-10-22T04:10:19.040Z,96.35
2022-10-22T04:12:48.345Z,96.47
2022-10-22T04:15:14.978Z,96.65
2022-10-22T04:17:41.658Z,96.35
2022-10-22T04:20:08.896Z,96.22
2022-10-22T04:22:36.336Z,96.18
2022-10-22T04:25:04.333Z,96.15
2022-10-22T04:27:32.510Z,96.74
2022-10-22T04:29:59.065Z,96.79
2022-10-22T04:32:26.729Z,96.36
2022-10-22T04:34:53.352Z,96.45
2022-10-22T04:37:20.190Z,96.37
2022-10-22T04:39:46.695Z,96.40
2022-10-22T04:42:13.223Z,96.10
2022-10-22T04:44:39.742Z,96.40
2022-10-22T04:47:06.268Z,96.05
2022-10-22T04:49:32.801Z,96.25
2022-10-22T04:51:59.279Z,96.26
2022-10-22T04:54:28.977Z,96.39
2022-10-22T04:56:58.786Z,96.67
2022-10-22T04:59:25.300Z,96.62
2022-10-22T05:01:51.766Z,96.89
2022-10-22T05:04:19.727Z,96.87
2022-10-22T05:06:46.613Z,96.62
2022-10-22T05:09:16.082Z,96.41
2022-10-22T05:11:46.392Z,96.34
2022-10-22T05:14:13.053Z,96.47
2022-10-22T05:16:39.633Z,96.35
2022-10-22T05:19:07.188Z,96.17
2022-10-22T05:21:34.325Z,96.37
2022-10-22T05:24:01.089Z,96.11
2022-10-22T05:26:28.950Z,96.02
2022-10-22T05:28:56.538Z,95.84
2022-10-22T05:31:23.262Z,95.99
2022-10-22T05:33:49.979Z,95.70
2022-10-22T05:36:21.710Z,95.61
2022-10-22T05:38:49.138Z,95.32
2022-10-22T05:41:21.334Z,95.39
2022-10-22T05:43:48.314Z,95.45
2022-10-22T05:46:22.204Z,95.16
2022-10-22T05:48:58.263Z,95.27
2022-10-22T05:51:26.890Z,94.99
2022-10-22T05:53:55.847Z,94.98
2022-10-22T05:56:22.865Z,95.09
2022-10-22T05:58:49.743Z,95.03
2022-10-22T06:01:19.378Z,94.76
2022-10-22T06:03:47.239Z,94.74
2022-10-22T06:06:24.178Z,94.82
2022-10-22T06:08:52.263Z,94.62
2022-10-22T06:11:20.286Z,94.38
2022-10-22T06:13:47.996Z,94.51
2022-10-22T06:16:14.776Z,94.67
2022-10-22T06:18:41.630Z,94.30
2022-10-22T06:21:12.714Z,94.65
2022-10-22T06:23:40.324Z,94.27
2022-10-22T06:26:08.093Z,94.50
2022-10-22T06:28:34.910Z,94.35
2022-10-22T06:31:03.126Z,94.49
2022-10-22T06:33:31.418Z,94.10
2022-10-22T06:36:07.758Z,94.26
2022-10-22T06:38:34.834Z,94.19
2022-10-22T06:41:06.009Z,94.44
2022-10-22T06:43:32.570Z,94.50
2022-10-22T06:46:01.100Z,94.41
2022-10-22T06:48:28.071Z,94.16
2022-10-22T06:50:54.711Z,94.03
2022-10-22T06:55:52.602Z,93.86
2022-10-22T06:58:19.121Z,94.01
2022-10-22T07:00:45.755Z,93.91
2022-10-22T07:03:13.954Z,94.07
2022-10-22T07:05:41.886Z,93.89
2022-10-22T07:08:08.778Z,93.98
2022-10-22T07:10:35.354Z,94.37
2022-10-22T07:13:01.867Z,94.09
2022-10-22T07:15:28.385Z,94.05
2022-10-22T07:17:54.868Z,94.24
2022-10-22T07:20:21.683Z,94.11
2022-10-22T07:22:48.157Z,94.15
2022-10-22T07:25:14.724Z,94.16
2022-10-22T07:27:41.385Z,94.20
2022-10-22T07:30:09.697Z,93.80
2022-10-22T07:32:37.202Z,94.26
2022-10-22T07:35:04.674Z,94.14
2022-10-22T07:37:31.159Z,94.10
2022-10-22T07:40:01.481Z,94.57
2022-10-22T07:45:01.967Z,94.78
2022-10-22T07:47:28.530Z,95.00
2022-10-22T07:49:55.022Z,95.41
2022-10-22T07:52:21.641Z,95.14
2022-10-22T07:54:48.135Z,95.30
2022-10-22T07:57:14.653Z,94.59
2022-10-22T07:59:41.206Z,94.64
2022-10-22T08:02:07.669Z,94.47
2022-10-22T08:04:34.212Z,93.98
2022-10-22T08:07:01.182Z,94.03
2022-10-22T08:09:27.748Z,93.83
2022-10-22T08:11:54.778Z,93.38
2022-10-22T08:14:21.822Z,93.51
2022-10-22T08:16:48.459Z,93.12
2022-10-22T08:19:18.793Z,93.20
2022-10-22T08:21:46.066Z,93.44
2022-10-22T08:24:13.408Z,93.48
2022-10-22T08:26:41.042Z,93.39
2022-10-22T08:29:08.230Z,93.34
2022-10-22T08:31:35.016Z,92.35
2022-10-22T08:34:01.506Z,92.31
2022-10-22T08:36:28.050Z,92.37
2022-10-22T08:38:54.879Z,92.66
2022-10-22T08:41:23.258Z,92.51
2022-10-22T08:43:58.689Z,92.59
2022-10-22T08:46:37.499Z,92.92
2022-10-22T08:51:40.714Z,93.57
2022-10-22T08:54:32.604Z,93.90
2022-10-22T08:57:08.931Z,94.82
2022-10-22T09:00:32.506Z,96.01
2022-10-22T09:03:27.787Z,97.47
2022-10-22T09:06:03.366Z,98.55
2022-10-22T09:08:30.250Z,99.97
2022-10-22T09:11:03.861Z,100.00
2022-10-22T09:13:30.807Z,100.00
2022-10-22T09:16:11.333Z,100.00
2022-10-22T09:18:53.501Z,100.00
2022-10-22T09:21:45.281Z,100.00
2022-10-22T09:24:18.870Z,100.00
2022-10-22T09:26:45.379Z,100.00
2022-10-22T09:29:24.532Z,100.00
2022-10-22T09:31:51.143Z,100.00
2022-10-22T09:34:21.812Z,100.00
2022-10-22T09:36:58.322Z,100.00
2022-10-22T09:39:32.581Z,100.00
2022-10-22T09:41:59.303Z,100.00
2022-10-22T09:44:28.102Z,100.00
2022-10-22T09:46:54.763Z,100.00
2022-10-22T09:49:23.321Z,100.00
2022-10-22T09:51:59.748Z,100.00
2022-10-22T09:54:31.990Z,100.00
2022-10-22T09:57:04.868Z,100.00
2022-10-22T09:59:36.819Z,100.00
2022-10-22T10:02:19.994Z,100.00
2022-10-22T10:04:55.830Z,100.00
2022-10-22T10:07:30.066Z,100.00
2022-10-22T10:09:57.124Z,100.00
2022-10-22T10:12:32.665Z,100.00
2022-10-22T10:15:11.133Z,100.00
2022-10-22T10:18:30.176Z,100.00
2022-10-22T10:21:34.180Z,100.00
2022-10-22T10:24:15.904Z,100.00
2022-10-22T10:27:20.798Z,100.00
2022-10-22T10:30:02.466Z,100.00
2022-10-22T10:32:41.452Z,100.00
2022-10-22T10:35:32.305Z,100.00
2022-10-22T10:38:19.886Z,100.00
2022-10-22T10:41:04.259Z,100.00
2022-10-22T10:43:53.234Z,100.00
2022-10-22T10:46:23.498Z,100.00
2022-10-22T10:48:53.930Z,100.00
2022-10-22T10:51:32.531Z,100.00
2022-10-22T10:54:02.085Z,100.00
2022-10-22T10:56:41.838Z,100.00
2022-10-22T10:59:14.019Z,100.00
2022-10-22T11:01:43.427Z,100.00
2022-10-22T11:04:29.165Z,100.00
2022-10-22T11:07:11.060Z,100.00
2022-10-22T11:09:53.393Z,100.00
2022-10-22T11:12:30.175Z,100.00
2022-10-22T11:15:08.798Z,100.00
2022-10-22T11:17:47.628Z,100.00
2022-10-22T11:20:25.683Z,100.00
2022-10-22T11:23:18.141Z,100.00
2022-10-22T11:25:47.165Z,100.00
2022-10-22T11:28:45.863Z,100.00
2022-10-22T11:31:17.033Z,100.00
2022-10-22T11:33:46.280Z,100.00
2022-10-22T11:36:13.754Z,100.00
2022-10-22T11:38:40.301Z,100.00
2022-10-22T11:41:12.015Z,100.00
2022-10-22T11:43:58.472Z,100.00
2022-10-22T11:46:57.299Z,100.00
2022-10-22T11:49:41.997Z,100.00
2022-10-22T11:52:40.453Z,100.00
2022-10-22T11:55:34.844Z,100.00
2022-10-22T11:58:02.909Z,100.00
2022-10-22T12:00:48.373Z,100.00
2022-10-22T12:03:23.906Z,100.00
2022-10-22T12:06:15.702Z,100.00
2022-10-22T12:08:48.650Z,100.00
2022-10-22T12:11:49.635Z,99.81
2022-10-22T12:14:40.752Z,99.36
2022-10-22T12:17:14.228Z,99.54
2022-10-22T12:19:44.072Z,99.22
2022-10-22T12:22:13.859Z,98.33
2022-10-22T12:24:44.664Z,97.84
2022-10-22T12:27:26.613Z,97.09
2022-10-22T12:29:57.961Z,96.57
2022-10-22T12:32:38.834Z,96.57
2022-10-22T12:35:08.703Z,96.36
2022-10-22T12:37:40.309Z,96.53
2022-10-22T12:40:21.465Z,96.50
2022-10-22T12:43:02.575Z,96.19
2022-10-22T12:45:31.638Z,96.20
2022-10-22T12:48:04.891Z,96.35
2022-10-22T12:50:40.125Z,96.45
2022-10-22T12:53:18.609Z,95.92
2022-10-22T12:55:51.031Z,96.28
2022-10-22T12:58:21.378Z,96.34
2022-10-22T13:00:48.829Z,96.31
2022-10-22T13:03:34.262Z,96.63
2022-10-22T13:06:18.974Z,96.88
2022-10-22T13:09:04.495Z,96.22
2022-10-22T13:11:39.879Z,96.00
2022-10-22T13:14:28.700Z,96.12
2022-10-22T13:17:15.280Z,95.00
2022-10-22T13:19:54.483Z,94.96
2022-10-22T13:22:32.950Z,94.91
2022-10-22T13:25:16.090Z,94.74
2022-10-22T13:27:52.194Z,94.31
2022-10-22T13:30:27.425Z,93.62
2022-10-22T13:32:57.538Z,93.07
2022-10-22T13:35:27.437Z,92.92
2022-10-22T13:37:54.422Z,92.67
2022-10-22T13:40:21.596Z,92.45
2022-10-22T13:42:48.141Z,92.36
2022-10-22T13:45:15.210Z,92.19
2022-10-22T13:47:44.917Z,92.72
2022-10-22T13:50:14.874Z,92.69
2022-10-22T13:52:47.748Z,92.68
2022-10-22T13:55:17.747Z,92.66
2022-10-22T13:57:45.104Z,92.45
2022-10-22T14:00:14.122Z,92.49
2022-10-22T14:02:42.082Z,92.08
2022-10-22T14:05:09.655Z,91.98
2022-10-22T14:07:37.466Z,91.68
2022-10-22T14:10:15.036Z,90.75
2022-10-22T14:12:42.241Z,90.48
2022-10-22T14:15:12.091Z,90.68
2022-10-22T14:17:40.614Z,90.27
2022-10-22T14:20:09.715Z,89.97
2022-10-22T14:22:36.192Z,89.54
2022-10-22T14:25:02.693Z,89.57
2022-10-22T14:27:29.173Z,89.06
2022-10-22T14:29:59.402Z,89.65
2022-10-22T14:32:28.257Z,88.97
2022-10-22T14:34:54.731Z,88.96
2022-10-22T14:37:21.264Z,88.77
2022-10-22T14:39:51.949Z,88.59
2022-10-22T14:42:20.011Z,88.75
2022-10-22T14:44:46.972Z,88.46
2022-10-22T14:47:13.524Z,88.19
2022-10-22T14:49:40.043Z,87.97
2022-10-22T14:52:07.373Z,87.86
2022-10-22T14:54:36.026Z,87.56
2022-10-22T14:57:04.113Z,87.97
2022-10-22T14:59:30.936Z,88.00
2022-10-22T15:01:57.850Z,87.73
2022-10-22T15:04:25.957Z,87.76
2022-10-22T15:06:56.289Z,87.86
2022-10-22T15:09:24.065Z,87.80
2022-10-22T15:11:51.166Z,87.24
2022-10-22T15:14:17.689Z,87.74
2022-10-22T15:16:44.280Z,87.36
2022-10-22T15:19:11.245Z,87.54
2022-10-22T15:21:37.761Z,87.33
2022-10-22T15:24:04.891Z,87.52
2022-10-22T15:26:31.548Z,87.65
2022-10-22T15:28:58.066Z,87.32
2022-10-22T15:31:43.234Z,87.58
2022-10-22T15:34:09.757Z,87.70
2022-10-22T15:36:36.317Z,87.68
2022-10-22T15:39:09.843Z,86.86
2022-10-22T15:41:37.934Z,87.06
2022-10-22T15:44:06.058Z,87.53
2022-10-22T15:46:35.334Z,86.98
2022-10-22T15:49:02.117Z,87.52
2022-10-22T15:51:28.651Z,87.27
2022-10-22T15:53:57.908Z,87.25
2022-10-22T15:56:25.782Z,87.35
2022-10-22T15:58:57.557Z,86.54
2022-10-22T16:01:25.375Z,86.90
2022-10-22T16:03:53.741Z,86.67
2022-10-22T16:06:20.235Z,86.67
2022-10-22T16:08:47.197Z,86.30
2022-10-22T16:11:13.732Z,86.03
2022-10-22T16:13:40.221Z,86.76
2022-10-22T16:16:08.116Z,86.00
2022-10-22T16:18:34.677Z,86.03
2022-10-22T16:21:01.127Z,85.61
2022-10-22T16:23:27.725Z,85.61
2022-10-22T16:25:54.198Z,85.89
2022-10-22T16:28:20.717Z,85.75
2022-10-22T16:30:47.259Z,85.74
2022-10-22T16:33:13.732Z,85.70
2022-10-22T16:35:43.245Z,86.28
2022-10-22T16:38:10.951Z,86.05
2022-10-22T16:40:37.519Z,86.22
2022-10-22T16:43:04.101Z,86.19
2022-10-22T16:45:30.642Z,86.37
2022-10-22T16:47:57.091Z,86.51
2022-10-22T16:50:23.576Z,86.12
2022-10-22T16:52:50.807Z,86.29
2022-10-22T16:55:17.618Z,86.25
2022-10-22T16:57:44.259Z,86.47
2022-10-22T17:00:11.629Z,86.49
2022-10-22T17:02:38.215Z,86.02
2022-10-22T17:05:05.176Z,86.21
2022-10-22T17:07:31.641Z,86.47
2022-10-22T17:09:58.129Z,86.36
2022-10-22T17:12:24.738Z,86.67
2022-10-22T17:14:51.330Z,86.33
2022-10-22T17:17:17.968Z,86.47
2022-10-22T17:19:44.437Z,86.32
2022-10-22T17:22:14.782Z,86.43
2022-10-22T17:24:43.966Z,86.85
2022-10-22T17:27:10.773Z,86.42
2022-10-22T17:29:37.814Z,86.50
2022-10-22T17:32:04.496Z,87.09
2022-10-22T17:34:33.208Z,86.70
2022-10-22T17:37:00.259Z,86.85
2022-10-22T17:39:26.982Z,86.35
2022-10-22T17:41:53.563Z,86.69
2022-10-22T17:44:20.267Z,87.12
2022-10-22T17:46:49.754Z,86.72
2022-10-22T17:49:19.956Z,87.16
2022-10-22T17:51:47.628Z,86.86
2022-10-22T17:54:14.591Z,87.33
2022-10-22T17:56:41.179Z,87.42
2022-10-22T17:59:09.735Z,87.17
2022-10-22T18:01:40.275Z,87.27
2022-10-22T18:04:08.532Z,87.42
2022-10-22T18:06:36.051Z,87.29
2022-10-22T18:09:11.528Z,87.72
2022-10-22T18:11:39.851Z,87.52
2022-10-22T18:14:06.609Z,87.58
2022-10-22T18:16:33.168Z,87.65
2022-10-22T18:18:59.948Z,87.64
2022-10-22T18:21:28.673Z,87.62
2022-10-22T18:23:56.900Z,87.68
2022-10-22T18:26:26.012Z,87.80
2022-10-22T18:28:53.547Z,87.80
2022-10-22T18:31:22.893Z,87.80
2022-10-22T18:33:49.594Z,88.08
2022-10-22T18:36:21.871Z,87.95
2022-10-22T18:38:53.517Z,87.89
2022-10-22T18:41:21.005Z,88.14
2022-10-22T18:43:55.986Z,88.42
2022-10-22T18:46:24.047Z,87.84
2022-10-22T18:48:53.695Z,88.07
2022-10-22T18:51:20.994Z,88.34
2022-10-22T18:53:59.272Z,88.09
2022-10-22T18:56:39.066Z,88.24
2022-10-22T18:59:05.573Z,88.58
2022-10-22T19:01:35.114Z,88.37
2022-10-22T19:04:01.694Z,88.54
2022-10-22T19:06:35.793Z,88.53
2022-10-22T19:09:04.120Z,88.64
2022-10-22T19:11:31.145Z,88.40
2022-10-22T19:13:58.301Z,88.22
2022-10-22T19:16:24.834Z,88.40
2022-10-22T19:19:02.780Z,88.59
2022-10-22T19:21:29.757Z,88.56
2022-10-22T19:23:57.809Z,88.76
2022-10-22T19:26:26.460Z,88.85
2022-10-22T19:28:57.854Z,88.79
2022-10-22T19:31:25.827Z,88.84
2022-10-22T19:33:55.301Z,89.14
2022-10-22T19:36:24.543Z,88.99
2022-10-22T19:38:51.747Z,88.90
2022-10-22T19:41:20.258Z,88.71
2022-10-22T19:43:51.095Z,88.89
2022-10-22T19:46:18.646Z,88.97
2022-10-22T19:51:22.422Z,88.90
2022-10-22T19:53:49.620Z,88.94
2022-10-22T19:56:19.477Z,88.97
2022-10-22T19:58:46.573Z,89.12
2022-10-22T20:01:15.828Z,88.92
2022-10-22T20:03:44.469Z,89.29
2022-10-22T20:06:12.556Z,89.05
2022-10-22T20:08:39.689Z,89.20
2022-10-22T20:11:10.584Z,88.71
2022-10-22T20:13:37.545Z,88.76
2022-10-22T20:16:04.748Z,88.92
2022-10-22T20:18:34.076Z,88.98
2022-10-22T20:21:08.149Z,88.99
2022-10-22T20:23:34.949Z,89.27
2022-10-22T20:26:01.535Z,88.93
2022-10-22T20:28:28.194Z,88.95
2022-10-22T20:30:54.953Z,89.34
2022-10-22T20:33:21.600Z,89.12
2022-10-22T20:35:58.898Z,88.96
2022-10-22T20:38:25.432Z,89.51
2022-10-22T20:41:11.701Z,89.26
2022-10-22T20:43:38.276Z,89.23
2022-10-22T20:46:05.308Z,89.07
2022-10-22T20:48:32.050Z,89.27
2022-10-22T20:50:59.884Z,89.18
2022-10-22T20:53:27.255Z,89.08
2022-10-22T20:55:57.607Z,89.24
2022-10-22T20:58:26.700Z,89.28
2022-10-22T21:00:55.076Z,89.18
2022-10-22T21:03:21.911Z,89.17
2022-10-22T21:05:48.572Z,89.48
2022-10-22T21:08:17.914Z,89.32
2022-10-22T21:10:49.228Z,89.10
2022-10-22T21:13:16.671Z,89.08
2022-10-22T21:15:43.166Z,89.08
2022-10-22T21:18:09.746Z,89.55
2022-10-22T21:20:36.697Z,89.54
2022-10-22T21:23:03.498Z,89.50
2022-10-22T21:25:30.008Z,89.18
2022-10-22T21:27:56.494Z,89.48
2022-10-22T21:30:23.053Z,89.34
2022-10-22T21:32:49.630Z,89.49
2022-10-22T21:35:16.184Z,89.74
2022-10-22T21:37:43.087Z,89.60
2022-10-22T21:40:10.480Z,89.63
2022-10-22T21:42:36.932Z,89.50
2022-10-22T21:45:03.694Z,89.86
2022-10-22T21:47:30.273Z,89.67
2022-10-22T21:49:56.806Z,89.99
2022-10-22T21:52:23.810Z,90.21
2022-10-22T21:54:50.553Z,90.03
2022-10-22T21:57:17.029Z,90.35
2022-10-22T21:59:43.558Z,90.17
2022-10-22T22:02:10.220Z,90.01
2022-10-22T22:04:37.118Z,90.17
2022-10-22T22:07:03.650Z,90.59
2022-10-22T22:09:30.213Z,90.54
2022-10-22T22:11:56.673Z,90.36
2022-10-22T22:14:23.201Z,90.74
2022-10-22T22:16:49.890Z,90.56
2022-10-22T22:19:16.492Z,90.41
2022-10-22T22:21:43.059Z,90.51
2022-10-22T22:24:12.780Z,90.42
2022-10-22T22:26:40.084Z,90.84
2022-10-22T22:29:06.593Z,90.57
2022-10-22T22:31:35.113Z,90.94
2022-10-22T22:34:08.073Z,90.95
2022-10-22T22:36:37.569Z,90.93
2022-10-22T22:39:06.020Z,91.01
2022-10-22T22:41:32.685Z,90.58
2022-10-22T22:43:59.459Z,90.82
2022-10-22T22:46:25.984Z,91.09
2022-10-22T22:48:52.512Z,91.12
2022-10-22T22:51:19.186Z,91.19
2022-10-22T22:53:45.809Z,90.79
2022-10-22T22:56:18.697Z,91.65
2022-10-22T22:58:45.606Z,90.99
2022-10-22T23:01:13.771Z,91.04
2022-10-22T23:03:40.765Z,91.17
2022-10-22T23:06:08.010Z,90.70
2022-10-22T23:08:35.308Z,90.93
2022-10-22T23:11:07.335Z,91.17
2022-10-22T23:13:34.542Z,91.34
2022-10-22T23:16:07.681Z,91.02
2022-10-22T23:18:35.191Z,90.94
2022-10-22T23:21:12.671Z,90.86
2022-10-22T23:23:39.203Z,91.49
2022-10-22T23:26:05.712Z,90.88
2022-10-22T23:28:32.462Z,91.17
2022-10-22T23:30:58.943Z,90.72
2022-10-22T23:33:25.414Z,91.41
2022-10-22T23:35:51.908Z,90.85
2022-10-22T23:38:18.413Z,90.87
2022-10-22T23:40:44.876Z,90.92
2022-10-22T23:43:11.453Z,90.78
2022-10-22T23:45:38.031Z,91.05
2022-10-22T23:48:04.899Z,90.85
2022-10-22T23:50:31.483Z,90.86
2022-10-22T23:52:57.987Z,91.12
2022-10-22T23:55:24.517Z,91.65
2022-10-22T23:57:51.042Z,90.85
